sensor_id;sensor_type;location;lat;lon;timestamp;temperature;humidity
56538;DHT22;42435;53.292;6.000;2023-04-28T08:03:50;9.00;70.50
56538;DHT22;42435;53.292;6.000;2023-04-28T08:06:16;8.90;70.60
56538;DHT22;42435;53.292;6.000;2023-04-28T08:08:42;8.90;71.30
56538;DHT22;42435;53.292;6.000;2023-04-28T08:11:07;8.90;71.80
56538;DHT22;42435;53.292;6.000;2023-04-28T08:13:34;8.90;72.10
56538;DHT22;42435;53.292;6.000;2023-04-28T08:15:59;8.90;72.40
56538;DHT22;42435;53.292;6.000;2023-04-28T08:18:26;8.90;72.60
56538;DHT22;42435;53.292;6.000;2023-04-28T08:20:51;9.00;72.80
56538;DHT22;42435;53.292;6.000;2023-04-28T08:23:17;9.00;73.00
56538;DHT22;42435;53.292;6.000;2023-04-28T08:25:44;9.10;73.20
56538;DHT22;42435;53.292;6.000;2023-04-28T08:28:09;9.20;73.60
56538;DHT22;42435;53.292;6.000;2023-04-28T08:30:35;9.30;73.80
56538;DHT22;42435;53.292;6.000;2023-04-28T08:33:06;9.40;73.90
56538;DHT22;42435;53.292;6.000;2023-04-28T08:35:31;9.40;74.00
56538;DHT22;42435;53.292;6.000;2023-04-28T08:37:57;9.50;73.80
56538;DHT22;42435;53.292;6.000;2023-04-28T08:40:23;9.50;73.80
56538;DHT22;42435;53.292;6.000;2023-04-28T08:42:49;9.60;73.50
56538;DHT22;42435;53.292;6.000;2023-04-28T08:45:15;9.70;73.30
56538;DHT22;42435;53.292;6.000;2023-04-28T08:47:42;9.90;73.30
56538;DHT22;42435;53.292;6.000;2023-04-28T08:50:12;9.90;73.20
56538;DHT22;42435;53.292;6.000;2023-04-28T08:52:39;10.00;73.00
56538;DHT22;42435;53.292;6.000;2023-04-28T08:55:10;10.00;72.70
56538;DHT22;42435;53.292;6.000;2023-04-28T08:57:38;10.00;72.80
56538;DHT22;42435;53.292;6.000;2023-04-28T09:02:51;10.00;72.80
56538;DHT22;42435;53.292;6.000;2023-04-28T09:05:16;10.10;72.30
56538;DHT22;42435;53.292;6.000;2023-04-28T09:07:44;10.20;72.10
56538;DHT22;42435;53.292;6.000;2023-04-28T09:10:21;10.20;72.10
56538;DHT22;42435;53.292;6.000;2023-04-28T09:12:50;10.10;72.30
56538;DHT22;42435;53.292;6.000;2023-04-28T09:15:36;10.10;72.40
56538;DHT22;42435;53.292;6.000;2023-04-28T09:18:05;10.20;72.30
56538;DHT22;42435;53.292;6.000;2023-04-28T09:20:34;10.40;72.20
56538;DHT22;42435;53.292;6.000;2023-04-28T09:23:18;10.50;72.20
56538;DHT22;42435;53.292;6.000;2023-04-28T09:28:26;10.80;71.20
56538;DHT22;42435;53.292;6.000;2023-04-28T09:30:52;10.90;71.10
56538;DHT22;42435;53.292;6.000;2023-04-28T09:33:18;11.10;70.60
56538;DHT22;42435;53.292;6.000;2023-04-28T09:35:45;11.20;70.30
56538;DHT22;42435;53.292;6.000;2023-04-28T09:38:12;11.20;70.10
56538;DHT22;42435;53.292;6.000;2023-04-28T09:40:59;11.30;70.30
56538;DHT22;42435;53.292;6.000;2023-04-28T09:43:27;11.40;70.30
56538;DHT22;42435;53.292;6.000;2023-04-28T09:45:54;11.60;70.20
56538;DHT22;42435;53.292;6.000;2023-04-28T09:48:27;11.70;69.90
56538;DHT22;42435;53.292;6.000;2023-04-28T09:50:53;11.80;69.60
56538;DHT22;42435;53.292;6.000;2023-04-28T09:53:22;12.00;69.60
56538;DHT22;42435;53.292;6.000;2023-04-28T09:55:49;12.20;69.40
56538;DHT22;42435;53.292;6.000;2023-04-28T09:58:19;12.40;69.10
56538;DHT22;42435;53.292;6.000;2023-04-28T10:00:45;12.50;68.80
56538;DHT22;42435;53.292;6.000;2023-04-28T10:03:15;12.70;68.60
56538;DHT22;42435;53.292;6.000;2023-04-28T10:05:41;12.80;68.00
56538;DHT22;42435;53.292;6.000;2023-04-28T10:08:07;12.90;67.40
56538;DHT22;42435;53.292;6.000;2023-04-28T10:10:36;12.90;66.80
56538;DHT22;42435;53.292;6.000;2023-04-28T10:13:02;12.80;66.70
56538;DHT22;42435;53.292;6.000;2023-04-28T10:15:28;12.70;66.40
56538;DHT22;42435;53.292;6.000;2023-04-28T10:17:54;12.70;66.20
56538;DHT22;42435;53.292;6.000;2023-04-28T10:20:20;12.50;66.20
56538;DHT22;42435;53.292;6.000;2023-04-28T10:23:24;12.40;66.60
56538;DHT22;42435;53.292;6.000;2023-04-28T10:25:56;12.40;67.50
56538;DHT22;42435;53.292;6.000;2023-04-28T10:28:25;12.30;67.90
56538;DHT22;42435;53.292;6.000;2023-04-28T10:33:40;12.00;69.70
56538;DHT22;42435;53.292;6.000;2023-04-28T10:36:07;11.90;70.00
56538;DHT22;42435;53.292;6.000;2023-04-28T10:39:06;11.90;70.60
56538;DHT22;42435;53.292;6.000;2023-04-28T10:41:34;11.90;71.40
56538;DHT22;42435;53.292;6.000;2023-04-28T10:47:07;11.80;72.00
56538;DHT22;42435;53.292;6.000;2023-04-28T10:55:36;11.60;73.30
56538;DHT22;42435;53.292;6.000;2023-04-28T11:00:48;11.80;73.90
56538;DHT22;42435;53.292;6.000;2023-04-28T11:03:45;11.70;74.00
56538;DHT22;42435;53.292;6.000;2023-04-28T11:06:24;11.70;74.50
56538;DHT22;42435;53.292;6.000;2023-04-28T11:11:21;11.70;74.00
56538;DHT22;42435;53.292;6.000;2023-04-28T11:13:48;11.70;74.10
56538;DHT22;42435;53.292;6.000;2023-04-28T11:16:15;11.60;74.00
56538;DHT22;42435;53.292;6.000;2023-04-28T11:18:59;11.50;74.10
56538;DHT22;42435;53.292;6.000;2023-04-28T11:21:29;11.40;74.60
56538;DHT22;42435;53.292;6.000;2023-04-28T11:23:56;11.40;74.60
56538;DHT22;42435;53.292;6.000;2023-04-28T11:26:23;11.30;74.90
56538;DHT22;42435;53.292;6.000;2023-04-28T11:28:57;11.30;75.00
56538;DHT22;42435;53.292;6.000;2023-04-28T11:31:25;11.20;75.50
56538;DHT22;42435;53.292;6.000;2023-04-28T11:33:55;11.10;75.60
56538;DHT22;42435;53.292;6.000;2023-04-28T11:36:32;11.10;75.90
56538;DHT22;42435;53.292;6.000;2023-04-28T11:38:59;11.10;75.90
56538;DHT22;42435;53.292;6.000;2023-04-28T11:41:25;11.10;76.10
56538;DHT22;42435;53.292;6.000;2023-04-28T11:43:52;11.10;76.40
56538;DHT22;42435;53.292;6.000;2023-04-28T11:46:22;11.10;76.60
56538;DHT22;42435;53.292;6.000;2023-04-28T11:48:48;11.10;76.80
56538;DHT22;42435;53.292;6.000;2023-04-28T11:51:31;11.10;77.00
56538;DHT22;42435;53.292;6.000;2023-04-28T11:53:57;11.10;77.30
56538;DHT22;42435;53.292;6.000;2023-04-28T11:56:23;11.00;77.10
56538;DHT22;42435;53.292;6.000;2023-04-28T11:59:00;11.00;77.30
56538;DHT22;42435;53.292;6.000;2023-04-28T12:01:26;10.90;77.40
56538;DHT22;42435;53.292;6.000;2023-04-28T12:03:51;10.90;77.30
56538;DHT22;42435;53.292;6.000;2023-04-28T12:06:17;10.90;77.40
56538;DHT22;42435;53.292;6.000;2023-04-28T12:08:43;10.90;77.70
56538;DHT22;42435;53.292;6.000;2023-04-28T12:11:13;10.90;77.90
56538;DHT22;42435;53.292;6.000;2023-04-28T12:13:39;10.90;78.10
56538;DHT22;42435;53.292;6.000;2023-04-28T12:16:05;11.00;78.30
56538;DHT22;42435;53.292;6.000;2023-04-28T12:18:32;11.00;78.50
56538;DHT22;42435;53.292;6.000;2023-04-28T12:20:58;11.00;78.70
56538;DHT22;42435;53.292;6.000;2023-04-28T12:23:31;11.00;78.80
56538;DHT22;42435;53.292;6.000;2023-04-28T12:26:01;11.00;79.10
56538;DHT22;42435;53.292;6.000;2023-04-28T12:28:37;11.10;78.90
56538;DHT22;42435;53.292;6.000;2023-04-28T12:31:07;11.20;78.90
56538;DHT22;42435;53.292;6.000;2023-04-28T12:33:36;11.20;78.80
56538;DHT22;42435;53.292;6.000;2023-04-28T12:36:05;11.20;78.80
56538;DHT22;42435;53.292;6.000;2023-04-28T12:38:31;11.20;79.00
56538;DHT22;42435;53.292;6.000;2023-04-28T12:40:57;11.30;79.20
56538;DHT22;42435;53.292;6.000;2023-04-28T12:43:24;11.40;79.20
56538;DHT22;42435;53.292;6.000;2023-04-28T12:45:52;11.40;79.30
56538;DHT22;42435;53.292;6.000;2023-04-28T12:48:18;11.50;79.30
56538;DHT22;42435;53.292;6.000;2023-04-28T12:50:44;11.50;79.30
56538;DHT22;42435;53.292;6.000;2023-04-28T12:53:10;11.60;79.30
56538;DHT22;42435;53.292;6.000;2023-04-28T12:55:36;11.60;79.30
56538;DHT22;42435;53.292;6.000;2023-04-28T12:58:05;11.60;79.10
56538;DHT22;42435;53.292;6.000;2023-04-28T13:00:30;11.60;79.10
56538;DHT22;42435;53.292;6.000;2023-04-28T13:02:57;11.60;79.20
56538;DHT22;42435;53.292;6.000;2023-04-28T13:05:25;11.70;79.40
56538;DHT22;42435;53.292;6.000;2023-04-28T13:11:00;11.70;79.40
56538;DHT22;42435;53.292;6.000;2023-04-28T13:13:26;11.70;79.60
56538;DHT22;42435;53.292;6.000;2023-04-28T13:15:52;11.70;79.30
56538;DHT22;42435;53.292;6.000;2023-04-28T13:18:17;11.70;79.20
56538;DHT22;42435;53.292;6.000;2023-04-28T13:20:43;11.60;79.40
56538;DHT22;42435;53.292;6.000;2023-04-28T13:23:12;11.60;79.50
56538;DHT22;42435;53.292;6.000;2023-04-28T13:25:37;11.60;79.60
56538;DHT22;42435;53.292;6.000;2023-04-28T13:28:03;11.60;79.60
56538;DHT22;42435;53.292;6.000;2023-04-28T13:30:28;11.50;79.80
56538;DHT22;42435;53.292;6.000;2023-04-28T13:32:54;11.50;79.90
56538;DHT22;42435;53.292;6.000;2023-04-28T13:35:19;11.50;79.90
56538;DHT22;42435;53.292;6.000;2023-04-28T13:37:45;11.50;80.00
56538;DHT22;42435;53.292;6.000;2023-04-28T13:40:11;11.50;80.10
56538;DHT22;42435;53.292;6.000;2023-04-28T13:42:37;11.50;80.20
56538;DHT22;42435;53.292;6.000;2023-04-28T13:45:03;11.50;80.30
56538;DHT22;42435;53.292;6.000;2023-04-28T13:47:29;11.40;80.40
56538;DHT22;42435;53.292;6.000;2023-04-28T13:49:57;11.40;80.40
56538;DHT22;42435;53.292;6.000;2023-04-28T13:52:24;11.40;80.60
56538;DHT22;42435;53.292;6.000;2023-04-28T13:54:50;11.40;80.70
56538;DHT22;42435;53.292;6.000;2023-04-28T13:57:16;11.40;80.90
56538;DHT22;42435;53.292;6.000;2023-04-28T13:59:42;11.50;81.00
56538;DHT22;42435;53.292;6.000;2023-04-28T14:02:07;11.50;81.00
56538;DHT22;42435;53.292;6.000;2023-04-28T14:04:36;11.50;81.10
56538;DHT22;42435;53.292;6.000;2023-04-28T14:07:02;11.50;81.20
56538;DHT22;42435;53.292;6.000;2023-04-28T14:09:28;11.50;81.20
56538;DHT22;42435;53.292;6.000;2023-04-28T14:11:53;11.50;81.30
56538;DHT22;42435;53.292;6.000;2023-04-28T14:14:22;11.50;81.30
56538;DHT22;42435;53.292;6.000;2023-04-28T14:16:48;11.50;81.50
56538;DHT22;42435;53.292;6.000;2023-04-28T14:19:14;11.40;81.50
56538;DHT22;42435;53.292;6.000;2023-04-28T14:21:42;11.40;81.60
56538;DHT22;42435;53.292;6.000;2023-04-28T14:24:11;11.40;81.70
56538;DHT22;42435;53.292;6.000;2023-04-28T14:26:37;11.40;81.90
56538;DHT22;42435;53.292;6.000;2023-04-28T14:29:02;11.40;81.90
56538;DHT22;42435;53.292;6.000;2023-04-28T14:31:30;11.40;82.00
56538;DHT22;42435;53.292;6.000;2023-04-28T14:33:56;11.40;82.10
56538;DHT22;42435;53.292;6.000;2023-04-28T14:36:25;11.40;82.10
56538;DHT22;42435;53.292;6.000;2023-04-28T14:38:51;11.40;82.30
56538;DHT22;42435;53.292;6.000;2023-04-28T14:41:17;11.40;82.50
56538;DHT22;42435;53.292;6.000;2023-04-28T14:43:43;11.50;82.60
56538;DHT22;42435;53.292;6.000;2023-04-28T14:46:10;11.50;82.70
56538;DHT22;42435;53.292;6.000;2023-04-28T14:48:37;11.50;82.90
56538;DHT22;42435;53.292;6.000;2023-04-28T14:51:06;11.60;83.10
56538;DHT22;42435;53.292;6.000;2023-04-28T14:53:32;11.60;83.30
56538;DHT22;42435;53.292;6.000;2023-04-28T14:55:58;11.70;83.30
56538;DHT22;42435;53.292;6.000;2023-04-28T14:58:23;11.80;83.30
56538;DHT22;42435;53.292;6.000;2023-04-28T15:00:50;11.90;83.10
56538;DHT22;42435;53.292;6.000;2023-04-28T15:03:20;11.90;82.90
56538;DHT22;42435;53.292;6.000;2023-04-28T15:05:46;12.00;82.70
56538;DHT22;42435;53.292;6.000;2023-04-28T15:08:11;12.00;82.70
56538;DHT22;42435;53.292;6.000;2023-04-28T15:10:38;12.00;82.90
56538;DHT22;42435;53.292;6.000;2023-04-28T15:13:06;12.00;82.90
56538;DHT22;42435;53.292;6.000;2023-04-28T15:15:36;12.10;82.90
56538;DHT22;42435;53.292;6.000;2023-04-28T15:18:03;12.20;82.90
56538;DHT22;42435;53.292;6.000;2023-04-28T15:20:30;12.20;82.90
56538;DHT22;42435;53.292;6.000;2023-04-28T15:22:58;12.30;82.90
56538;DHT22;42435;53.292;6.000;2023-04-28T15:25:28;12.40;82.80
56538;DHT22;42435;53.292;6.000;2023-04-28T15:27:53;12.40;82.70
56538;DHT22;42435;53.292;6.000;2023-04-28T15:30:19;12.40;82.60
56538;DHT22;42435;53.292;6.000;2023-04-28T15:32:47;12.50;82.70
56538;DHT22;42435;53.292;6.000;2023-04-28T15:35:14;12.50;82.70
56538;DHT22;42435;53.292;6.000;2023-04-28T15:37:41;12.60;82.80
56538;DHT22;42435;53.292;6.000;2023-04-28T15:40:13;12.60;82.70
56538;DHT22;42435;53.292;6.000;2023-04-28T15:42:39;12.70;82.60
56538;DHT22;42435;53.292;6.000;2023-04-28T15:45:07;12.80;82.40
56538;DHT22;42435;53.292;6.000;2023-04-28T15:47:35;12.70;82.40
56538;DHT22;42435;53.292;6.000;2023-04-28T15:50:01;12.70;82.40
56538;DHT22;42435;53.292;6.000;2023-04-28T15:52:27;12.80;82.30
56538;DHT22;42435;53.292;6.000;2023-04-28T15:54:56;12.80;82.40
56538;DHT22;42435;53.292;6.000;2023-04-28T15:57:21;12.80;82.50
56538;DHT22;42435;53.292;6.000;2023-04-28T15:59:47;12.80;82.40
56538;DHT22;42435;53.292;6.000;2023-04-28T16:02:12;12.90;82.40
56538;DHT22;42435;53.292;6.000;2023-04-28T16:04:42;12.90;82.30
56538;DHT22;42435;53.292;6.000;2023-04-28T16:07:07;12.90;82.20
56538;DHT22;42435;53.292;6.000;2023-04-28T16:09:44;12.90;82.10
56538;DHT22;42435;53.292;6.000;2023-04-28T16:12:13;12.90;81.90
56538;DHT22;42435;53.292;6.000;2023-04-28T16:14:38;12.90;81.80
56538;DHT22;42435;53.292;6.000;2023-04-28T16:17:07;12.90;81.50
56538;DHT22;42435;53.292;6.000;2023-04-28T16:19:33;12.90;81.50
56538;DHT22;42435;53.292;6.000;2023-04-28T16:21:58;12.90;81.40
56538;DHT22;42435;53.292;6.000;2023-04-28T16:24:25;12.80;81.40
56538;DHT22;42435;53.292;6.000;2023-04-28T16:26:51;12.80;81.50
56538;DHT22;42435;53.292;6.000;2023-04-28T16:29:17;12.70;81.50
56538;DHT22;42435;53.292;6.000;2023-04-28T16:31:44;12.70;81.60
56538;DHT22;42435;53.292;6.000;2023-04-28T16:34:09;12.60;81.80
56538;DHT22;42435;53.292;6.000;2023-04-28T16:36:39;12.60;81.80
56538;DHT22;42435;53.292;6.000;2023-04-28T16:39:05;12.60;81.80
56538;DHT22;42435;53.292;6.000;2023-04-28T16:41:31;12.50;81.80
56538;DHT22;42435;53.292;6.000;2023-04-28T16:43:56;12.50;81.90
56538;DHT22;42435;53.292;6.000;2023-04-28T16:46:22;12.50;81.80
56538;DHT22;42435;53.292;6.000;2023-04-28T16:48:48;12.50;81.90
56538;DHT22;42435;53.292;6.000;2023-04-28T16:51:14;12.40;82.00
56538;DHT22;42435;53.292;6.000;2023-04-28T16:53:39;12.40;82.10
56538;DHT22;42435;53.292;6.000;2023-04-28T16:56:07;12.40;82.10
56538;DHT22;42435;53.292;6.000;2023-04-28T16:58:38;12.40;82.30
56538;DHT22;42435;53.292;6.000;2023-04-28T17:01:03;12.40;82.30
56538;DHT22;42435;53.292;6.000;2023-04-28T17:03:30;12.30;82.30
56538;DHT22;42435;53.292;6.000;2023-04-28T17:05:56;12.30;82.40
56538;DHT22;42435;53.292;6.000;2023-04-28T17:08:21;12.30;82.30
56538;DHT22;42435;53.292;6.000;2023-04-28T17:10:47;12.20;82.20
56538;DHT22;42435;53.292;6.000;2023-04-28T17:13:13;12.20;82.10
56538;DHT22;42435;53.292;6.000;2023-04-28T17:15:38;12.10;82.10
56538;DHT22;42435;53.292;6.000;2023-04-28T17:18:07;12.00;82.10
56538;DHT22;42435;53.292;6.000;2023-04-28T17:20:33;11.90;82.10
56538;DHT22;42435;53.292;6.000;2023-04-28T17:22:59;11.90;82.20
56538;DHT22;42435;53.292;6.000;2023-04-28T17:25:24;11.90;82.30
56538;DHT22;42435;53.292;6.000;2023-04-28T17:27:50;11.80;82.40
56538;DHT22;42435;53.292;6.000;2023-04-28T17:30:15;11.80;82.40
56538;DHT22;42435;53.292;6.000;2023-04-28T17:32:41;11.70;82.30
56538;DHT22;42435;53.292;6.000;2023-04-28T17:35:07;11.60;82.40
56538;DHT22;42435;53.292;6.000;2023-04-28T17:37:33;11.60;82.50
56538;DHT22;42435;53.292;6.000;2023-04-28T17:40:01;11.50;82.70
56538;DHT22;42435;53.292;6.000;2023-04-28T17:42:28;11.50;82.70
56538;DHT22;42435;53.292;6.000;2023-04-28T17:44:58;11.50;82.80
56538;DHT22;42435;53.292;6.000;2023-04-28T17:47:24;11.40;82.90
56538;DHT22;42435;53.292;6.000;2023-04-28T17:49:50;11.40;82.90
56538;DHT22;42435;53.292;6.000;2023-04-28T17:52:16;11.40;82.90
56538;DHT22;42435;53.292;6.000;2023-04-28T17:54:42;11.30;82.90
56538;DHT22;42435;53.292;6.000;2023-04-28T17:57:10;11.30;83.00
56538;DHT22;42435;53.292;6.000;2023-04-28T17:59:37;11.20;83.10
56538;DHT22;42435;53.292;6.000;2023-04-28T18:02:04;11.20;83.20
56538;DHT22;42435;53.292;6.000;2023-04-28T18:04:32;11.20;83.20
56538;DHT22;42435;53.292;6.000;2023-04-28T18:06:58;11.10;83.40
56538;DHT22;42435;53.292;6.000;2023-04-28T18:09:23;11.10;83.50
56538;DHT22;42435;53.292;6.000;2023-04-28T18:11:50;11.10;83.60
56538;DHT22;42435;53.292;6.000;2023-04-28T18:14:16;11.00;83.50
56538;DHT22;42435;53.292;6.000;2023-04-28T18:16:42;11.00;83.60
56538;DHT22;42435;53.292;6.000;2023-04-28T18:19:10;11.00;83.70
56538;DHT22;42435;53.292;6.000;2023-04-28T18:21:36;11.00;83.70
56538;DHT22;42435;53.292;6.000;2023-04-28T18:24:02;11.00;83.70
56538;DHT22;42435;53.292;6.000;2023-04-28T18:26:28;10.90;83.80
56538;DHT22;42435;53.292;6.000;2023-04-28T18:28:56;10.90;83.80
56538;DHT22;42435;53.292;6.000;2023-04-28T18:31:22;10.90;83.90
56538;DHT22;42435;53.292;6.000;2023-04-28T18:33:49;10.90;83.80
56538;DHT22;42435;53.292;6.000;2023-04-28T18:36:14;10.90;83.90
56538;DHT22;42435;53.292;6.000;2023-04-28T18:38:40;10.90;83.90
56538;DHT22;42435;53.292;6.000;2023-04-28T18:41:16;10.90;84.00
56538;DHT22;42435;53.292;6.000;2023-04-28T18:43:43;10.80;84.10
56538;DHT22;42435;53.292;6.000;2023-04-28T18:46:11;10.90;84.10
56538;DHT22;42435;53.292;6.000;2023-04-28T18:48:37;10.90;84.10
56538;DHT22;42435;53.292;6.000;2023-04-28T18:51:04;10.90;84.10
56538;DHT22;42435;53.292;6.000;2023-04-28T18:53:30;10.90;84.10
56538;DHT22;42435;53.292;6.000;2023-04-28T18:55:56;10.90;84.20
56538;DHT22;42435;53.292;6.000;2023-04-28T18:58:23;10.90;84.10
56538;DHT22;42435;53.292;6.000;2023-04-28T19:00:50;10.90;84.10
56538;DHT22;42435;53.292;6.000;2023-04-28T19:03:16;10.90;84.20
56538;DHT22;42435;53.292;6.000;2023-04-28T19:05:42;10.90;84.10
56538;DHT22;42435;53.292;6.000;2023-04-28T19:08:08;10.90;84.00
56538;DHT22;42435;53.292;6.000;2023-04-28T19:10:37;10.90;84.00
56538;DHT22;42435;53.292;6.000;2023-04-28T19:13:02;11.00;84.10
56538;DHT22;42435;53.292;6.000;2023-04-28T19:15:29;11.00;84.00
56538;DHT22;42435;53.292;6.000;2023-04-28T19:17:55;11.00;84.00
56538;DHT22;42435;53.292;6.000;2023-04-28T19:20:21;10.90;84.00
56538;DHT22;42435;53.292;6.000;2023-04-28T19:22:50;11.00;84.00
56538;DHT22;42435;53.292;6.000;2023-04-28T19:25:17;11.00;84.00
56538;DHT22;42435;53.292;6.000;2023-04-28T19:27:45;11.00;84.00
56538;DHT22;42435;53.292;6.000;2023-04-28T19:30:14;11.00;83.90
56538;DHT22;42435;53.292;6.000;2023-04-28T19:32:40;10.90;83.90
56538;DHT22;42435;53.292;6.000;2023-04-28T19:35:07;10.90;83.90
56538;DHT22;42435;53.292;6.000;2023-04-28T19:37:33;10.90;83.90
56538;DHT22;42435;53.292;6.000;2023-04-28T19:40:00;10.90;83.90
56538;DHT22;42435;53.292;6.000;2023-04-28T19:42:26;10.90;84.00
56538;DHT22;42435;53.292;6.000;2023-04-28T19:44:58;10.90;84.00
56538;DHT22;42435;53.292;6.000;2023-04-28T19:47:28;10.90;84.00
56538;DHT22;42435;53.292;6.000;2023-04-28T19:50:01;10.90;83.90
56538;DHT22;42435;53.292;6.000;2023-04-28T19:52:38;10.80;84.00
56538;DHT22;42435;53.292;6.000;2023-04-28T19:55:11;10.90;84.00
56538;DHT22;42435;53.292;6.000;2023-04-28T19:57:43;10.80;84.00
56538;DHT22;42435;53.292;6.000;2023-04-28T20:00:12;10.80;84.00
56538;DHT22;42435;53.292;6.000;2023-04-28T20:02:37;10.80;84.10
56538;DHT22;42435;53.292;6.000;2023-04-28T20:05:03;10.80;84.00
56538;DHT22;42435;53.292;6.000;2023-04-28T20:07:30;10.70;84.00
56538;DHT22;42435;53.292;6.000;2023-04-28T20:09:56;10.80;84.10
56538;DHT22;42435;53.292;6.000;2023-04-28T20:12:23;10.80;84.20
56538;DHT22;42435;53.292;6.000;2023-04-28T20:14:50;10.80;84.20
56538;DHT22;42435;53.292;6.000;2023-04-28T20:17:16;10.80;84.20
56538;DHT22;42435;53.292;6.000;2023-04-28T20:19:42;10.80;84.10
56538;DHT22;42435;53.292;6.000;2023-04-28T20:22:15;10.80;84.10
56538;DHT22;42435;53.292;6.000;2023-04-28T20:24:41;10.80;84.10
56538;DHT22;42435;53.292;6.000;2023-04-28T20:27:07;10.80;84.10
56538;DHT22;42435;53.292;6.000;2023-04-28T20:29:32;10.70;84.10
56538;DHT22;42435;53.292;6.000;2023-04-28T20:32:02;10.70;84.10
56538;DHT22;42435;53.292;6.000;2023-04-28T20:34:31;10.70;84.10
56538;DHT22;42435;53.292;6.000;2023-04-28T20:36:57;10.70;84.20
56538;DHT22;42435;53.292;6.000;2023-04-28T20:39:31;10.70;84.20
56538;DHT22;42435;53.292;6.000;2023-04-28T20:41:57;10.70;84.20
56538;DHT22;42435;53.292;6.000;2023-04-28T20:44:24;10.70;84.20
56538;DHT22;42435;53.292;6.000;2023-04-28T20:46:50;10.70;84.30
56538;DHT22;42435;53.292;6.000;2023-04-28T20:49:16;10.70;84.30
56538;DHT22;42435;53.292;6.000;2023-04-28T20:51:42;10.70;84.30
56538;DHT22;42435;53.292;6.000;2023-04-28T20:54:11;10.70;84.30
56538;DHT22;42435;53.292;6.000;2023-04-28T20:56:37;10.70;84.30
56538;DHT22;42435;53.292;6.000;2023-04-28T20:59:02;10.70;84.30
56538;DHT22;42435;53.292;6.000;2023-04-28T21:01:31;10.70;84.30
56538;DHT22;42435;53.292;6.000;2023-04-28T21:04:00;10.70;84.40
56538;DHT22;42435;53.292;6.000;2023-04-28T21:06:25;10.70;84.40
56538;DHT22;42435;53.292;6.000;2023-04-28T21:08:51;10.60;84.40
56538;DHT22;42435;53.292;6.000;2023-04-28T21:11:17;10.70;84.40
56538;DHT22;42435;53.292;6.000;2023-04-28T21:13:44;10.70;84.40
56538;DHT22;42435;53.292;6.000;2023-04-28T21:16:17;10.60;84.40
56538;DHT22;42435;53.292;6.000;2023-04-28T21:18:44;10.60;84.40
56538;DHT22;42435;53.292;6.000;2023-04-28T21:21:10;10.60;84.30
56538;DHT22;42435;53.292;6.000;2023-04-28T21:23:36;10.60;84.40
56538;DHT22;42435;53.292;6.000;2023-04-28T21:26:04;10.60;84.40
56538;DHT22;42435;53.292;6.000;2023-04-28T21:28:29;10.60;84.30
56538;DHT22;42435;53.292;6.000;2023-04-28T21:30:59;10.50;84.30
56538;DHT22;42435;53.292;6.000;2023-04-28T21:33:25;10.60;84.30
56538;DHT22;42435;53.292;6.000;2023-04-28T21:35:51;10.50;84.30
56538;DHT22;42435;53.292;6.000;2023-04-28T21:38:17;10.50;84.30
56538;DHT22;42435;53.292;6.000;2023-04-28T21:40:42;10.40;84.20
56538;DHT22;42435;53.292;6.000;2023-04-28T21:43:11;10.40;84.20
56538;DHT22;42435;53.292;6.000;2023-04-28T21:45:36;10.40;84.30
56538;DHT22;42435;53.292;6.000;2023-04-28T21:48:02;10.40;84.40
56538;DHT22;42435;53.292;6.000;2023-04-28T21:50:28;10.40;84.30
56538;DHT22;42435;53.292;6.000;2023-04-28T21:52:53;10.40;84.30
56538;DHT22;42435;53.292;6.000;2023-04-28T21:55:19;10.30;84.30
56538;DHT22;42435;53.292;6.000;2023-04-28T21:57:46;10.30;84.30
56538;DHT22;42435;53.292;6.000;2023-04-28T22:00:11;10.20;84.50
56538;DHT22;42435;53.292;6.000;2023-04-28T22:02:38;10.20;84.50
56538;DHT22;42435;53.292;6.000;2023-04-28T22:05:04;10.20;84.50
56538;DHT22;42435;53.292;6.000;2023-04-28T22:07:31;10.20;84.60
56538;DHT22;42435;53.292;6.000;2023-04-28T22:09:57;10.20;84.60
56538;DHT22;42435;53.292;6.000;2023-04-28T22:12:23;10.20;84.70
56538;DHT22;42435;53.292;6.000;2023-04-28T22:14:49;10.20;84.70
56538;DHT22;42435;53.292;6.000;2023-04-28T22:17:15;10.20;84.60
56538;DHT22;42435;53.292;6.000;2023-04-28T22:19:41;10.20;84.60
56538;DHT22;42435;53.292;6.000;2023-04-28T22:22:07;10.20;84.60
56538;DHT22;42435;53.292;6.000;2023-04-28T22:24:36;10.20;84.60
56538;DHT22;42435;53.292;6.000;2023-04-28T22:27:03;10.10;84.50
56538;DHT22;42435;53.292;6.000;2023-04-28T22:29:28;10.10;84.60
56538;DHT22;42435;53.292;6.000;2023-04-28T22:31:54;10.20;84.60
56538;DHT22;42435;53.292;6.000;2023-04-28T22:34:20;10.10;84.60
56538;DHT22;42435;53.292;6.000;2023-04-28T22:36:46;10.10;84.60
56538;DHT22;42435;53.292;6.000;2023-04-28T22:39:12;10.10;84.50
56538;DHT22;42435;53.292;6.000;2023-04-28T22:41:38;10.10;84.50
56538;DHT22;42435;53.292;6.000;2023-04-28T22:44:03;10.10;84.50
56538;DHT22;42435;53.292;6.000;2023-04-28T22:46:29;10.10;84.50
56538;DHT22;42435;53.292;6.000;2023-04-28T22:48:55;10.10;84.40
56538;DHT22;42435;53.292;6.000;2023-04-28T22:51:20;10.10;84.40
56538;DHT22;42435;53.292;6.000;2023-04-28T22:53:47;10.10;84.40
56538;DHT22;42435;53.292;6.000;2023-04-28T22:56:14;10.10;84.40
56538;DHT22;42435;53.292;6.000;2023-04-28T22:58:40;10.20;84.40
56538;DHT22;42435;53.292;6.000;2023-04-28T23:01:07;10.10;84.40
56538;DHT22;42435;53.292;6.000;2023-04-28T23:03:33;10.20;84.40
56538;DHT22;42435;53.292;6.000;2023-04-28T23:05:59;10.10;84.30
56538;DHT22;42435;53.292;6.000;2023-04-28T23:08:24;10.20;84.40
56538;DHT22;42435;53.292;6.000;2023-04-28T23:10:50;10.20;84.30
56538;DHT22;42435;53.292;6.000;2023-04-28T23:13:16;10.20;84.30
56538;DHT22;42435;53.292;6.000;2023-04-28T23:15:41;10.20;84.30
56538;DHT22;42435;53.292;6.000;2023-04-28T23:18:07;10.20;84.20
56538;DHT22;42435;53.292;6.000;2023-04-28T23:20:33;10.20;84.20
56538;DHT22;42435;53.292;6.000;2023-04-28T23:22:58;10.20;84.10
56538;DHT22;42435;53.292;6.000;2023-04-28T23:25:24;10.20;84.10
56538;DHT22;42435;53.292;6.000;2023-04-28T23:27:53;10.20;84.10
56538;DHT22;42435;53.292;6.000;2023-04-28T23:30:19;10.20;84.10
56538;DHT22;42435;53.292;6.000;2023-04-28T23:32:45;10.10;84.00
56538;DHT22;42435;53.292;6.000;2023-04-28T23:35:10;10.20;84.00
56538;DHT22;42435;53.292;6.000;2023-04-28T23:37:36;10.20;84.00
56538;DHT22;42435;53.292;6.000;2023-04-28T23:40:02;10.10;83.90
56538;DHT22;42435;53.292;6.000;2023-04-28T23:42:28;10.10;83.90
56538;DHT22;42435;53.292;6.000;2023-04-28T23:44:55;10.10;83.90
56538;DHT22;42435;53.292;6.000;2023-04-28T23:47:22;10.10;83.90
56538;DHT22;42435;53.292;6.000;2023-04-28T23:49:48;10.10;83.90
56538;DHT22;42435;53.292;6.000;2023-04-28T23:52:13;10.10;83.90
56538;DHT22;42435;53.292;6.000;2023-04-28T23:54:39;10.00;83.80
56538;DHT22;42435;53.292;6.000;2023-04-28T23:57:05;10.00;83.80
56538;DHT22;42435;53.292;6.000;2023-04-28T23:59:32;10.00;83.90
